createdAt,value
2018-12-19T00:00:26.249Z,22.85
2018-12-19T00:02:52.909Z,22.87
2018-12-19T00:05:19.608Z,22.90
2018-12-19T00:07:46.241Z,22.91
2018-12-19T00:10:12.885Z,22.93
2018-12-19T00:12:39.527Z,22.94
2018-12-19T00:15:06.168Z,22.91
2018-12-19T00:17:32.815Z,22.95
2018-12-19T00:19:59.458Z,22.92
2018-12-19T00:22:26.099Z,22.94
2018-12-19T00:24:52.764Z,22.89
2018-12-19T00:27:19.405Z,22.85
2018-12-19T00:29:46.088Z,22.79
2018-12-19T00:32:12.729Z,22.70
2018-12-19T00:34:39.369Z,22.77
2018-12-19T00:37:06.007Z,22.72
2018-12-19T00:39:32.650Z,22.69
2018-12-19T00:41:59.286Z,22.81
2018-12-19T00:44:25.950Z,22.83
2018-12-19T00:46:52.605Z,22.84
2018-12-19T00:49:19.253Z,22.86
2018-12-19T00:51:45.904Z,22.90
2018-12-19T00:54:12.540Z,22.93
2018-12-19T00:56:39.237Z,22.92
2018-12-19T00:59:05.874Z,22.95
2018-12-19T01:01:32.520Z,22.95
2018-12-19T01:03:59.242Z,22.95
2018-12-19T01:06:25.981Z,22.95
2018-12-19T01:08:52.619Z,22.96
2018-12-19T01:11:19.268Z,22.93
2018-12-19T01:13:45.962Z,22.87
2018-12-19T01:16:12.610Z,22.80
2018-12-19T01:18:39.373Z,22.78
2018-12-19T01:21:06.012Z,22.77
2018-12-19T01:23:32.650Z,22.78
2018-12-19T01:25:59.296Z,22.80
2018-12-19T01:28:25.933Z,22.83
2018-12-19T01:30:52.581Z,22.84
2018-12-19T01:33:19.229Z,22.87
2018-12-19T01:35:45.905Z,22.90
2018-12-19T01:38:12.612Z,22.83
2018-12-19T01:40:39.273Z,22.88
2018-12-19T01:43:05.923Z,22.88
2018-12-19T01:45:32.579Z,22.85
2018-12-19T01:47:59.228Z,22.82
2018-12-19T01:50:25.888Z,22.84
2018-12-19T01:52:52.530Z,22.83
2018-12-19T01:55:19.212Z,22.86
2018-12-19T01:57:45.854Z,22.80
2018-12-19T02:00:12.577Z,22.70
2018-12-19T02:02:39.213Z,22.65
2018-12-19T02:05:05.844Z,22.71
2018-12-19T02:07:32.494Z,22.66
2018-12-19T02:09:59.173Z,22.67
2018-12-19T02:12:25.816Z,22.75
2018-12-19T02:14:52.474Z,22.75
2018-12-19T02:17:19.117Z,22.78
2018-12-19T02:19:45.769Z,22.78
2018-12-19T02:22:12.508Z,22.82
2018-12-19T02:24:39.109Z,22.79
2018-12-19T02:27:05.765Z,22.82
2018-12-19T02:29:32.407Z,22.83
2018-12-19T02:31:59.094Z,22.85
2018-12-19T02:34:25.793Z,22.85
2018-12-19T02:36:52.436Z,22.87
2018-12-19T02:39:19.090Z,22.89
2018-12-19T02:41:45.742Z,22.84
2018-12-19T02:44:12.387Z,22.77
2018-12-19T02:46:39.078Z,22.72
2018-12-19T02:49:05.714Z,22.72
2018-12-19T02:51:32.350Z,22.71
2018-12-19T02:53:59.004Z,22.74
2018-12-19T02:56:25.703Z,22.73
2018-12-19T02:58:52.397Z,22.75
2018-12-19T03:01:19.033Z,22.78
2018-12-19T03:03:45.720Z,22.80
2018-12-19T03:06:12.401Z,22.80
2018-12-19T03:08:39.054Z,22.84
2018-12-19T03:11:05.738Z,22.81
2018-12-19T03:13:32.384Z,22.83
2018-12-19T03:15:59.026Z,22.83
2018-12-19T03:18:25.713Z,22.83
2018-12-19T03:20:52.355Z,22.80
2018-12-19T03:23:19.007Z,22.80
2018-12-19T03:25:45.706Z,22.73
2018-12-19T03:28:12.337Z,22.67
2018-12-19T03:30:39.037Z,22.63
2018-12-19T03:33:05.678Z,22.65
2018-12-19T03:35:32.365Z,22.66
2018-12-19T03:37:59.108Z,22.62
2018-12-19T03:40:25.746Z,22.65
2018-12-19T03:42:52.384Z,22.71
2018-12-19T03:45:19.036Z,22.73
2018-12-19T03:47:45.730Z,22.70
2018-12-19T03:50:12.373Z,22.74
2018-12-19T03:52:39.021Z,22.76
2018-12-19T03:55:05.816Z,22.78
2018-12-19T03:57:32.459Z,22.78
2018-12-19T03:59:59.162Z,22.81
2018-12-19T04:02:25.800Z,22.80
2018-12-19T04:04:52.436Z,22.81
2018-12-19T04:07:19.140Z,22.85
2018-12-19T04:09:45.794Z,22.83
2018-12-19T04:12:12.479Z,22.75
2018-12-19T04:14:39.130Z,22.68
2018-12-19T04:17:05.774Z,22.66
2018-12-19T04:19:32.475Z,22.72
2018-12-19T04:21:59.161Z,22.67
2018-12-19T04:24:25.798Z,22.69
2018-12-19T04:26:52.546Z,22.69
2018-12-19T04:29:19.192Z,22.76
2018-12-19T04:31:45.885Z,22.77
2018-12-19T04:34:12.536Z,22.77
2018-12-19T04:36:39.164Z,22.78
2018-12-19T04:39:05.822Z,22.79
2018-12-19T04:41:32.471Z,22.79
2018-12-19T04:43:59.162Z,22.76
2018-12-19T04:46:25.807Z,22.70
2018-12-19T04:48:52.622Z,22.56
2018-12-19T04:51:19.263Z,22.27
2018-12-19T04:53:45.913Z,22.11
2018-12-19T04:56:12.613Z,22.39
2018-12-19T04:58:39.258Z,22.55
2018-12-19T05:01:05.899Z,22.44
2018-12-19T05:03:32.554Z,22.48
2018-12-19T05:05:59.224Z,22.49
2018-12-19T05:08:25.916Z,22.51
2018-12-19T05:10:52.549Z,22.56
2018-12-19T05:13:19.201Z,22.60
2018-12-19T05:15:45.855Z,22.61
2018-12-19T05:18:12.548Z,22.71
2018-12-19T05:20:39.208Z,22.78
2018-12-19T05:23:05.853Z,22.71
2018-12-19T05:25:32.540Z,22.70
2018-12-19T05:27:59.172Z,22.70
2018-12-19T05:30:25.808Z,22.70
2018-12-19T05:32:52.505Z,22.68
2018-12-19T05:35:19.171Z,22.56
2018-12-19T05:37:45.871Z,22.52
2018-12-19T05:40:18.664Z,22.54
2018-12-19T05:42:39.237Z,22.55
2018-12-19T05:45:05.872Z,22.66
2018-12-19T05:47:32.594Z,22.65
2018-12-19T05:49:59.291Z,22.67
2018-12-19T05:52:25.987Z,22.70
2018-12-19T05:54:52.641Z,22.70
2018-12-19T05:57:19.267Z,22.73
2018-12-19T05:59:45.960Z,22.75
2018-12-19T06:02:12.689Z,22.76
2018-12-19T06:04:39.291Z,22.87
2018-12-19T06:07:05.990Z,22.80
2018-12-19T06:09:32.637Z,22.81
2018-12-19T06:11:59.289Z,22.82
2018-12-19T06:14:25.989Z,22.79
2018-12-19T06:16:52.626Z,22.78
2018-12-19T06:19:19.272Z,22.68
2018-12-19T06:21:45.906Z,22.72
2018-12-19T06:24:12.614Z,22.66
2018-12-19T06:26:39.262Z,22.65
2018-12-19T06:29:05.961Z,22.67
2018-12-19T06:31:32.623Z,22.73
2018-12-19T06:33:59.316Z,22.73
2018-12-19T06:36:26.036Z,22.82
2018-12-19T06:38:52.692Z,22.84
2018-12-19T06:41:19.336Z,22.86
2018-12-19T06:43:45.992Z,22.85
2018-12-19T06:46:14.001Z,22.84
2018-12-19T06:48:39.353Z,22.84
2018-12-19T06:51:06.050Z,22.87
2018-12-19T06:53:32.752Z,23.03
2018-12-19T06:55:59.452Z,22.94
2018-12-19T06:58:26.202Z,22.94
2018-12-19T07:00:52.807Z,22.93
2018-12-19T07:03:19.518Z,22.92
2018-12-19T07:05:46.171Z,22.89
2018-12-19T07:08:12.816Z,22.84
2018-12-19T07:10:39.472Z,22.84
2018-12-19T07:13:06.245Z,22.97
2018-12-19T07:15:32.885Z,22.98
2018-12-19T07:17:59.556Z,22.96
2018-12-19T07:20:26.248Z,23.08
2018-12-19T07:22:52.944Z,23.19
2018-12-19T07:25:19.603Z,23.12
2018-12-19T07:27:46.249Z,23.15
2018-12-19T07:30:12.973Z,23.24
2018-12-19T07:32:39.633Z,23.18
2018-12-19T07:35:06.342Z,23.21
2018-12-19T07:37:32.998Z,23.16
2018-12-19T07:39:59.685Z,23.15
2018-12-19T07:42:26.347Z,23.21
2018-12-19T07:44:53.038Z,23.27
2018-12-19T07:47:19.710Z,23.19
2018-12-19T07:49:46.411Z,23.17
2018-12-19T07:52:13.086Z,23.09
2018-12-19T07:54:39.741Z,23.10
2018-12-19T07:57:06.406Z,23.08
2018-12-19T07:59:33.149Z,23.17
2018-12-19T08:01:59.867Z,23.12
2018-12-19T08:04:26.562Z,23.17
2018-12-19T08:06:54.532Z,23.24
2018-12-19T08:09:21.231Z,23.25
2018-12-19T08:11:47.997Z,23.32
2018-12-19T08:14:14.692Z,23.41
2018-12-19T08:16:41.462Z,23.48
2018-12-19T08:19:08.124Z,23.53
2018-12-19T08:21:34.827Z,23.48
2018-12-19T08:24:01.534Z,23.48
2018-12-19T08:26:28.184Z,23.58
2018-12-19T08:28:54.957Z,23.45
2018-12-19T08:31:21.856Z,23.41
2018-12-19T08:33:48.587Z,23.39
2018-12-19T08:36:15.608Z,23.33
2018-12-19T08:38:42.313Z,23.40
2018-12-19T08:41:08.970Z,23.45
2018-12-19T08:43:35.682Z,23.42
2018-12-19T08:46:02.430Z,23.49
2018-12-19T08:48:29.131Z,23.45
2018-12-19T08:50:55.792Z,23.57
2018-12-19T08:53:22.482Z,23.62
2018-12-19T08:55:49.205Z,23.74
2018-12-19T08:58:15.930Z,23.63
2018-12-19T09:00:42.686Z,23.71
2018-12-19T09:03:09.345Z,23.71
2018-12-19T09:05:36.164Z,23.83
2018-12-19T09:08:02.894Z,23.91
2018-12-19T09:10:29.529Z,24.03
2018-12-19T09:12:56.244Z,23.96
2018-12-19T09:15:27.686Z,23.84
2018-12-19T09:17:49.615Z,23.82
2018-12-19T09:20:16.253Z,23.92
2018-12-19T09:22:42.970Z,24.03
2018-12-19T09:25:11.829Z,24.11
2018-12-19T09:27:38.571Z,24.07
2018-12-19T09:30:05.213Z,24.36
2018-12-19T09:32:31.958Z,24.20
2018-12-19T09:34:58.602Z,24.08
2018-12-19T09:37:25.273Z,24.19
2018-12-19T09:39:51.940Z,24.18
2018-12-19T09:42:18.593Z,24.21
2018-12-19T09:44:45.243Z,24.25
2018-12-19T09:47:11.884Z,24.27
2018-12-19T09:49:38.596Z,24.23
2018-12-19T09:52:05.291Z,24.18
2018-12-19T09:54:31.954Z,24.31
2018-12-19T09:57:01.372Z,24.25
2018-12-19T09:59:28.006Z,24.28
2018-12-19T10:01:54.865Z,24.43
2018-12-19T10:04:21.519Z,24.43
2018-12-19T10:06:49.269Z,24.43
2018-12-19T10:09:15.954Z,24.39
2018-12-19T10:11:42.629Z,24.41
2018-12-19T10:14:09.344Z,24.21
2018-12-19T10:16:36.005Z,24.17
2018-12-19T10:19:02.756Z,24.15
2018-12-19T10:21:29.418Z,24.12
2018-12-19T10:23:56.158Z,24.08
2018-12-19T10:26:22.824Z,24.07
2018-12-19T10:28:49.467Z,24.09
2018-12-19T10:31:16.167Z,24.06
2018-12-19T10:33:42.810Z,24.00
2018-12-19T10:36:09.544Z,24.03
2018-12-19T10:38:36.207Z,23.98
2018-12-19T10:41:02.858Z,24.08
2018-12-19T10:43:29.510Z,24.05
2018-12-19T10:45:56.208Z,24.09
2018-12-19T10:48:22.868Z,24.04
2018-12-19T10:50:49.566Z,24.06
2018-12-19T10:53:16.221Z,24.10
2018-12-19T10:55:42.896Z,24.10
2018-12-19T10:58:09.665Z,24.06
2018-12-19T11:00:36.526Z,24.11
2018-12-19T11:03:03.430Z,24.13
2018-12-19T11:05:30.057Z,24.24
2018-12-19T11:07:56.744Z,24.10
2018-12-19T11:10:25.849Z,24.18
2018-12-19T11:12:52.496Z,24.29
2018-12-19T11:15:19.223Z,24.19
2018-12-19T11:17:45.883Z,24.24
2018-12-19T11:20:12.557Z,24.33
2018-12-19T11:22:39.229Z,24.27
2018-12-19T11:25:05.982Z,24.24
2018-12-19T11:27:32.697Z,24.30
2018-12-19T11:29:59.384Z,24.28
2018-12-19T11:32:26.105Z,24.28
2018-12-19T11:34:52.786Z,24.31
2018-12-19T11:37:19.549Z,24.30
2018-12-19T11:39:46.392Z,24.30
2018-12-19T11:42:14.211Z,24.32
2018-12-19T11:44:40.997Z,24.32
2018-12-19T11:47:07.694Z,24.37
2018-12-19T11:49:34.371Z,24.41
2018-12-19T11:52:01.090Z,24.46
2018-12-19T11:54:27.809Z,24.36
2018-12-19T11:56:54.449Z,24.35
2018-12-19T11:59:21.156Z,24.59
2018-12-19T12:01:48.906Z,24.49
2018-12-19T12:04:15.556Z,24.42
2018-12-19T12:06:42.279Z,24.46
2018-12-19T12:09:09.272Z,24.40
2018-12-19T12:11:36.392Z,24.38
2018-12-19T12:14:03.056Z,24.56
2018-12-19T12:16:29.745Z,24.53
2018-12-19T12:18:56.455Z,24.44
2018-12-19T12:21:23.096Z,24.41
2018-12-19T12:23:49.742Z,24.53
2018-12-19T12:26:16.395Z,24.57
2018-12-19T12:28:43.069Z,24.43
2018-12-19T12:31:09.886Z,24.43
2018-12-19T12:33:36.582Z,24.49
2018-12-19T12:36:03.229Z,24.35
2018-12-19T12:38:34.096Z,24.44
2018-12-19T12:40:56.633Z,24.46
2018-12-19T12:43:24.317Z,24.34
2018-12-19T12:45:50.999Z,24.41
2018-12-19T12:48:17.647Z,24.59
2018-12-19T12:50:44.411Z,24.57
2018-12-19T12:53:11.077Z,24.39
2018-12-19T12:55:37.725Z,24.36
2018-12-19T12:58:04.398Z,24.28
2018-12-19T13:00:31.073Z,24.31
2018-12-19T13:02:57.726Z,23.93
2018-12-19T13:05:24.453Z,23.93
2018-12-19T13:07:51.103Z,23.99
2018-12-19T13:10:17.769Z,24.03
2018-12-19T13:12:44.443Z,24.26
2018-12-19T13:15:11.090Z,24.29
2018-12-19T13:17:38.309Z,24.26
2018-12-19T13:20:05.021Z,24.45
2018-12-19T13:25:18.524Z,24.33
2018-12-19T13:27:45.285Z,24.25
2018-12-19T13:30:11.937Z,24.44
2018-12-19T13:32:38.755Z,24.33
2018-12-19T13:35:05.489Z,24.41
2018-12-19T13:37:32.068Z,24.22
2018-12-19T13:39:58.725Z,24.23
2018-12-19T13:42:25.417Z,24.20
2018-12-19T13:44:52.066Z,24.25
2018-12-19T13:47:21.412Z,24.36
2018-12-19T13:49:48.222Z,24.27
2018-12-19T13:52:14.898Z,24.35
2018-12-19T13:54:41.596Z,24.33
2018-12-19T13:57:08.246Z,24.28
2018-12-19T13:59:34.927Z,24.39
2018-12-19T14:02:01.590Z,24.26
2018-12-19T14:04:28.305Z,24.28
2018-12-19T14:06:56.006Z,24.24
2018-12-19T14:09:22.656Z,24.30
2018-12-19T14:11:49.314Z,24.31
2018-12-19T14:14:15.999Z,24.24
2018-12-19T14:16:42.667Z,24.23
2018-12-19T14:19:09.311Z,24.23
2018-12-19T14:21:35.955Z,24.21
2018-12-19T14:24:02.627Z,24.31
2018-12-19T14:26:29.299Z,24.21
2018-12-19T14:28:55.949Z,24.30
2018-12-19T14:31:22.602Z,24.21
2018-12-19T14:33:49.331Z,24.26
2018-12-19T14:36:16.045Z,24.18
2018-12-19T14:38:42.871Z,24.19
2018-12-19T14:41:09.380Z,24.15
2018-12-19T14:43:36.125Z,24.11
2018-12-19T14:46:03.129Z,24.05
2018-12-19T14:48:29.878Z,24.07
2018-12-19T14:50:56.551Z,24.05
2018-12-19T14:53:23.206Z,24.18
2018-12-19T14:55:49.939Z,24.34
2018-12-19T14:58:17.383Z,24.12
2018-12-19T15:00:44.051Z,24.04
2018-12-19T15:03:11.111Z,24.02
2018-12-19T15:05:37.753Z,24.04
2018-12-19T15:08:04.730Z,24.22
2018-12-19T15:10:31.367Z,24.16
2018-12-19T15:12:58.014Z,24.29
2018-12-19T15:15:24.656Z,24.09
2018-12-19T15:17:51.667Z,23.96
2018-12-19T15:20:18.517Z,24.08
2018-12-19T15:22:45.159Z,23.96
2018-12-19T15:25:11.802Z,23.98
2018-12-19T15:27:38.453Z,24.10
2018-12-19T15:30:05.090Z,23.99
2018-12-19T15:32:31.879Z,23.91
2018-12-19T15:34:58.521Z,23.98
2018-12-19T15:37:25.192Z,23.95
2018-12-19T15:39:51.871Z,23.83
2018-12-19T15:42:18.529Z,24.08
2018-12-19T15:44:45.174Z,23.86
2018-12-19T15:47:11.821Z,24.00
2018-12-19T15:49:38.554Z,23.84
2018-12-19T15:52:05.253Z,23.81
2018-12-19T15:54:31.907Z,23.93
2018-12-19T15:56:58.556Z,23.94
2018-12-19T15:59:25.314Z,23.82
2018-12-19T16:01:51.918Z,23.73
2018-12-19T16:04:18.561Z,23.73
2018-12-19T16:06:46.262Z,23.69
2018-12-19T16:09:12.907Z,23.67
2018-12-19T16:11:39.631Z,23.67
2018-12-19T16:14:06.476Z,23.64
2018-12-19T16:16:33.120Z,23.62
2018-12-19T16:18:59.802Z,23.64
2018-12-19T16:21:26.476Z,23.61
2018-12-19T16:23:53.124Z,23.59
2018-12-19T16:26:19.782Z,23.57
2018-12-19T16:28:46.423Z,23.54
2018-12-19T16:31:13.128Z,23.53
2018-12-19T16:33:39.768Z,23.55
2018-12-19T16:36:06.418Z,23.56
2018-12-19T16:38:33.055Z,23.49
2018-12-19T16:40:59.710Z,23.49
2018-12-19T16:43:26.341Z,23.47
2018-12-19T16:45:53.041Z,23.49
2018-12-19T16:48:19.688Z,23.45
2018-12-19T16:50:46.325Z,23.44
2018-12-19T16:53:13.018Z,23.46
2018-12-19T16:55:39.655Z,23.39
2018-12-19T16:58:06.309Z,23.32
2018-12-19T17:00:32.964Z,23.31
2018-12-19T17:02:59.617Z,23.42
2018-12-19T17:05:26.313Z,23.38
2018-12-19T17:07:52.953Z,23.39
2018-12-19T17:10:19.654Z,23.45
2018-12-19T17:12:52.611Z,23.46
2018-12-19T17:15:12.944Z,23.50
2018-12-19T17:17:42.686Z,23.54
2018-12-19T17:20:09.379Z,23.53
2018-12-19T17:22:36.027Z,23.52
2018-12-19T17:25:02.723Z,23.55
2018-12-19T17:27:29.375Z,23.51
2018-12-19T17:29:56.114Z,23.47
2018-12-19T17:32:22.752Z,23.47
2018-12-19T17:34:49.411Z,23.43
2018-12-19T17:37:16.061Z,23.41
2018-12-19T17:39:42.698Z,23.35
2018-12-19T17:42:09.340Z,23.37
2018-12-19T17:44:36.141Z,23.19
2018-12-19T17:47:02.832Z,23.19
2018-12-19T17:49:30.098Z,23.28
2018-12-19T17:51:56.737Z,23.27
2018-12-19T17:54:23.489Z,23.34
2018-12-19T17:56:50.130Z,23.35
2018-12-19T17:59:16.821Z,23.39
2018-12-19T18:01:43.468Z,23.55
2018-12-19T18:04:10.116Z,23.47
2018-12-19T18:06:36.763Z,23.43
2018-12-19T18:09:03.422Z,23.38
2018-12-19T18:11:30.073Z,23.34
2018-12-19T18:13:56.736Z,23.33
2018-12-19T18:16:23.437Z,23.33
2018-12-19T18:18:50.075Z,23.30
2018-12-19T18:21:16.838Z,23.30
2018-12-19T18:23:43.483Z,23.26
2018-12-19T18:26:10.177Z,23.24
2018-12-19T18:28:36.821Z,23.24
2018-12-19T18:31:03.474Z,23.16
2018-12-19T18:33:30.193Z,23.03
2018-12-19T18:35:56.852Z,23.03
2018-12-19T18:38:23.500Z,23.10
2018-12-19T18:40:50.194Z,23.11
2018-12-19T18:43:16.902Z,23.10
2018-12-19T18:45:43.557Z,23.10
2018-12-19T18:48:10.198Z,23.12
2018-12-19T18:50:37.004Z,23.16
2018-12-19T18:53:03.650Z,23.19
2018-12-19T18:55:30.351Z,23.31
2018-12-19T18:57:57.058Z,23.28
2018-12-19T19:00:23.703Z,23.26
2018-12-19T19:02:50.440Z,23.26
2018-12-19T19:05:17.041Z,23.28
2018-12-19T19:07:43.707Z,23.27
2018-12-19T19:10:10.345Z,23.28
2018-12-19T19:12:37.012Z,23.27
2018-12-19T19:15:03.713Z,23.22
2018-12-19T19:17:30.364Z,23.10
2018-12-19T19:19:56.998Z,23.03
2018-12-19T19:22:23.672Z,23.06
2018-12-19T19:24:50.371Z,23.05
2018-12-19T19:27:17.022Z,23.06
2018-12-19T19:29:43.714Z,23.11
2018-12-19T19:32:10.359Z,23.13
2018-12-19T19:34:37.009Z,23.15
2018-12-19T19:37:03.709Z,23.16
2018-12-19T19:39:30.360Z,23.20
2018-12-19T19:41:57.066Z,23.20
2018-12-19T19:44:23.776Z,23.24
2018-12-19T19:46:50.473Z,23.22
2018-12-19T19:49:17.114Z,23.21
2018-12-19T19:51:43.757Z,23.15
2018-12-19T19:54:10.488Z,23.11
2018-12-19T19:56:37.184Z,23.09
2018-12-19T19:59:03.836Z,23.02
2018-12-19T20:01:30.475Z,23.02
2018-12-19T20:03:57.123Z,22.82
2018-12-19T20:06:23.819Z,22.84
2018-12-19T20:08:50.513Z,22.95
2018-12-19T20:11:17.161Z,22.94
2018-12-19T20:13:43.857Z,22.97
2018-12-19T20:16:10.507Z,22.98
2018-12-19T20:18:37.158Z,22.98
2018-12-19T20:21:03.852Z,23.04
2018-12-19T20:23:30.484Z,23.09
2018-12-19T20:25:57.121Z,23.10
2018-12-19T20:28:23.768Z,23.10
2018-12-19T20:30:50.483Z,23.12
2018-12-19T20:33:17.164Z,23.12
2018-12-19T20:35:43.818Z,23.13
2018-12-19T20:38:10.471Z,23.15
2018-12-19T20:40:37.130Z,23.15
2018-12-19T20:43:06.810Z,23.12
2018-12-19T20:45:30.448Z,23.03
2018-12-19T20:47:57.144Z,22.87
2018-12-19T20:50:23.836Z,22.83
2018-12-19T20:52:50.534Z,22.90
2018-12-19T20:55:17.187Z,22.89
2018-12-19T20:57:43.863Z,22.93
2018-12-19T21:00:10.515Z,22.95
2018-12-19T21:02:37.151Z,22.98
2018-12-19T21:05:03.812Z,23.02
2018-12-19T21:07:30.464Z,23.05
2018-12-19T21:09:57.198Z,23.02
2018-12-19T21:12:23.849Z,23.05
2018-12-19T21:14:50.543Z,23.04
2018-12-19T21:17:17.187Z,22.98
2018-12-19T21:19:43.884Z,22.82
2018-12-19T21:22:10.530Z,22.53
2018-12-19T21:24:37.179Z,22.41
2018-12-19T21:27:03.834Z,22.45
2018-12-19T21:29:30.475Z,22.65
2018-12-19T21:31:57.128Z,22.69
2018-12-19T21:34:23.771Z,22.75
2018-12-19T21:36:50.416Z,22.78
2018-12-19T21:39:17.105Z,22.86
2018-12-19T21:41:43.783Z,22.83
2018-12-19T21:44:10.493Z,22.88
2018-12-19T21:46:37.117Z,22.92
2018-12-19T21:49:03.743Z,22.91
2018-12-19T21:51:30.437Z,22.92
2018-12-19T21:53:57.074Z,22.98
2018-12-19T21:56:23.791Z,23.00
2018-12-19T21:58:50.432Z,23.00
2018-12-19T22:01:17.206Z,23.03
2018-12-19T22:03:43.799Z,23.00
2018-12-19T22:06:10.461Z,22.92
2018-12-19T22:08:37.091Z,22.80
2018-12-19T22:11:03.854Z,22.84
2018-12-19T22:13:30.428Z,22.83
2018-12-19T22:15:57.089Z,22.80
2018-12-19T22:18:23.782Z,22.87
2018-12-19T22:20:50.489Z,22.88
2018-12-19T22:23:17.198Z,22.89
2018-12-19T22:25:43.799Z,22.93
2018-12-19T22:28:10.516Z,22.94
2018-12-19T22:30:37.074Z,22.96
2018-12-19T22:33:03.782Z,22.97
2018-12-19T22:35:30.422Z,23.00
2018-12-19T22:37:57.167Z,23.00
2018-12-19T22:40:23.818Z,23.01
2018-12-19T22:42:50.505Z,23.02
2018-12-19T22:45:17.077Z,22.98
2018-12-19T22:47:43.771Z,22.99
2018-12-19T22:50:10.404Z,22.84
2018-12-19T22:52:37.110Z,22.73
2018-12-19T22:55:03.785Z,22.82
2018-12-19T22:57:30.499Z,22.81
2018-12-19T22:59:57.075Z,22.80
2018-12-19T23:02:23.758Z,22.88
2018-12-19T23:04:50.405Z,22.89
2018-12-19T23:07:17.049Z,22.89
2018-12-19T23:09:43.780Z,22.90
2018-12-19T23:12:10.357Z,22.94
2018-12-19T23:14:37.051Z,22.94
2018-12-19T23:17:03.743Z,22.95
2018-12-19T23:19:30.395Z,22.97
2018-12-19T23:21:57.090Z,22.98
2018-12-19T23:24:23.779Z,23.00
2018-12-19T23:26:50.519Z,23.02
2018-12-19T23:29:17.281Z,23.03
2018-12-19T23:31:43.846Z,23.02
2018-12-19T23:34:10.464Z,23.00
2018-12-19T23:36:37.225Z,22.99
2018-12-19T23:39:03.766Z,22.98
2018-12-19T23:41:31.040Z,22.98
2018-12-19T23:43:57.150Z,22.98
2018-12-19T23:46:23.774Z,22.90
2018-12-19T23:48:50.505Z,22.72
2018-12-19T23:51:17.197Z,22.74
2018-12-19T23:53:43.849Z,22.77
2018-12-19T23:56:10.602Z,22.74
2018-12-19T23:58:37.189Z,22.79
